Max Wonder — 9HA4072 — position and weather

sailwx.info

Track history (hours):
 
Tides and Currents Weather Stations Pressure Air Temp Water Temp Dewpoint Dewpoint Depression Visibility Wind Speed Wind Dir Waves Ship Positions

Max Wonder

Last reported at 2017-Sep-14 20:48 UTC. Time now 2017-Sep-20 23:48 UTC.
Position N 19°19' W 017°23'.

Length 162 m; draft 9.7 m.

MMSI: 249060000.

Date/timePositionNaut miles runAvg speedWind from/ knotsBaromVisibWave heightAir tempDewpointWater temp
2017-Sep-14 20:48N 19°19' W 017°23'412.6
2017-Sep-14 20:30N 19°22' W 017°25'3514.1
2017-Sep-14 18:03N 19°48' W 017°49'1913.7
2017-Sep-14 16:39N 20°05' W 017°60'1214.3
2017-Sep-14 15:47N 20°17' W 018°00'414.6
2017-Sep-14 15:30N 20°21' W 018°00'21114.5
2017-Sep-14 00:54N 23°41' W 016°47'12014.9
2017-Sep-13 16:51N 25°32' W 015°58'4215.5
2017-Sep-13 14:06N 26°12' W 015°41'315.4
2017-Sep-13 13:56N 26°15' W 015°40'8414.8
2017-Sep-13 08:14N 27°36' W 015°16'417.0
2017-Sep-13 08:00N 27°40' W 015°16'817.0
2017-Sep-13 07:30N 27°48' W 015°15'917.5
2017-Sep-13 07:00N 27°57' W 015°15'816.8
2017-Sep-13 06:30N 28°04' W 015°20'611.0
2017-Sep-13 06:00N 28°08' W 015°25'1 1.9
2017-Sep-13 05:25N 28°09' W 015°25'0 0.0
2017-Sep-13 04:58N 28°09' W 015°25'0 0.0
2017-Sep-13 04:25N 28°09' W 015°25'0 0.0
2017-Sep-13 03:55N 28°09' W 015°25'0 0.0
2017-Sep-13 03:28N 28°09' W 015°25'0 0.0
2017-Sep-13 02:55N 28°09' W 015°25'0 0.0
2017-Sep-13 02:28N 28°09' W 015°25'0 0.0
2017-Sep-13 01:58N 28°09' W 015°25'0 0.0
2017-Sep-13 01:28N 28°09' W 015°25'0 0.0
2017-Sep-13 00:58N 28°09' W 015°25'0 0.0
2017-Sep-13 00:28N 28°09' W 015°25'0 0.0
2017-Sep-12 23:55N 28°09' W 015°25'0 0.0
2017-Sep-12 23:28N 28°09' W 015°25'0 0.0
2017-Sep-12 22:58N 28°09' W 015°25'0 0.0
2017-Sep-12 22:28N 28°09' W 015°25'0 0.0
2017-Sep-12 21:58N 28°09' W 015°25'0 0.4
2017-Sep-12 21:30N 28°09' W 015°25'2 4.0
2017-Sep-12 21:00N 28°07' W 015°24'3 6.8
2017-Sep-12 20:30N 28°05' W 015°20'5 9.8
2017-Sep-12 20:00N 28°05' W 015°15'713.5
2017-Sep-12 19:30N 28°05' W 015°07'612.5
2017-Sep-12 19:00N 28°08' W 015°01'713.9
2017-Sep-12 18:30N 28°14' W 014°57'714.2
2017-Sep-12 18:00N 28°20' W 014°54'714.2
2017-Sep-12 17:30N 28°27' W 014°50'714.3
2017-Sep-12 17:00N 28°33' W 014°47'815.1
2017-Sep-12 16:30N 28°40' W 014°43'816.5
2017-Sep-12 16:00N 28°47' W 014°39'916.7
2017-Sep-12 15:29N 28°55' W 014°35'916.6
2017-Sep-12 14:57N 29°03' W 014°31'1116.3
2017-Sep-12 14:17N 29°13' W 014°25'616.0
2017-Sep-12 13:54N 29°19' W 014°22'18216.6
2017-Sep-12 02:58N 31°33' W 012°00'2317.0
2017-Sep-12 01:37N 31°49' W 011°41'217.4
2017-Sep-12 01:29N 31°50' W 011°39'917.6
2017-Sep-12 00:59N 31°56' W 011°31'7417.4
2017-Sep-11 20:43N 32°46' W 010°26'1317.1
2017-Sep-11 19:59N 32°55' W 010°15'6617.4
2017-Sep-11 16:12N 33°39' W 009°17'417.5
2017-Sep-11 15:59N 33°41' W 009°13'10917.1
2017-Sep-11 09:36N 34°55' W 007°36'116.6
2017-Sep-11 09:30N 34°56' W 007°35'916.6
2017-Sep-11 08:58N 35°02' W 007°27'816.5
2017-Sep-11 08:30N 35°08' W 007°20'816.5
2017-Sep-11 08:00N 35°13' W 007°13'816.7
2017-Sep-11 07:30N 35°20' W 007°06'916.5
2017-Sep-11 06:59N 35°26' W 006°59'816.7
2017-Sep-11 06:30N 35°31' W 006°51'6816.1
2017-Sep-11 02:17N 35°57' W 005°34'5 0.2
2017-Sep-10 05:18N 35°54' W 005°30'3 3.0
2017-Sep-10 04:26N 35°54' W 005°33'2 1.5
2017-Sep-10 03:26N 35°53' W 005°34'5 0.4
2017-Sep-09 13:09N 35°58' W 005°31'513.9
2017-Sep-09 12:45N 36°01' W 005°25'311.7
2017-Sep-09 12:30N 36°03' W 005°23'4 8.8
2017-Sep-09 12:00N 36°07' W 005°25'0 0.0
2017-Sep-09 04:24N 36°08' W 005°25'0 0.0
2017-Sep-09 04:00N 36°08' W 005°25'0 0.0
2017-Sep-09 03:21N 36°08' W 005°25'0 0.0
2017-Sep-09 02:54N 36°08' W 005°25'0 0.0
2017-Sep-09 02:27N 36°08' W 005°25'0 0.0
2017-Sep-09 01:57N 36°08' W 005°25'0 0.0
2017-Sep-09 01:27N 36°08' W 005°25'0 0.0
2017-Sep-09 01:00N 36°08' W 005°25'0 0.0
2017-Sep-09 00:15N 36°08' W 005°25'0 0.0
2017-Sep-09 00:00N 36°08' W 005°25'0 0.0
2017-Sep-08 22:48N 36°08' W 005°25'0 0.0
2017-Sep-08 22:30N 36°08' W 005°25'0 0.0
2017-Sep-08 21:48N 36°08' W 005°25'0 0.0
2017-Sep-08 21:30N 36°08' W 005°25'0 0.0
2017-Sep-08 20:51N 36°08' W 005°25'0 0.0
2017-Sep-08 20:27N 36°08' W 005°25'0 0.0
2017-Sep-08 19:57N 36°08' W 005°25'0 0.0
2017-Sep-08 19:24N 36°08' W 005°25'0 0.0
2017-Sep-08 19:00N 36°08' W 005°25'0 0.0
2017-Sep-08 18:30N 36°08' W 005°25'0 0.0
2017-Sep-08 18:00N 36°08' W 005°25'0 0.0
2017-Sep-08 17:12N 36°08' W 005°25'0 0.0
2017-Sep-08 16:59N 36°08' W 005°25'1 2.9
2017-Sep-08 16:30N 36°07' W 005°24'2 4.8
2017-Sep-08 16:00N 36°05' W 005°23'2 3.8
2017-Sep-08 15:30N 36°03' W 005°22'0 0.3
2017-Sep-08 15:00N 36°03' W 005°21'0 0.4
2017-Sep-08 14:30N 36°03' W 005°21'0 0.2
2017-Sep-08 13:59N 36°03' W 005°21'2 5.0
2017-Sep-08 13:30N 36°01' W 005°22'3 5.7
2017-Sep-08 13:00N 35°59' W 005°24'3 5.7
2017-Sep-08 12:30N 35°58' W 005°28'2011.4
2017-Sep-08 10:45N 35°54' W 005°52'715.7
2017-Sep-08 10:18N 35°53' W 006°01'1216.2
2017-Sep-08 09:33N 35°50' W 006°15'292 8.8
2017-Sep-07 00:11N 32°12' W 010°08'315.9
2017-Sep-07 00:00N 32°09' W 010°11'25316.3
2017-Sep-06 08:27N 28°44' W 013°03'1215.7
2017-Sep-06 07:39N 28°34' W 013°11'315.5
2017-Sep-06 07:28N 28°32' W 013°13'715.3
2017-Sep-06 07:00N 28°26' W 013°18'815.5
2017-Sep-06 06:30N 28°20' W 013°23'815.7
2017-Sep-06 06:00N 28°13' W 013°28'815.8
2017-Sep-06 05:30N 28°07' W 013°33'815.5
2017-Sep-06 05:00N 28°01' W 013°39'815.5
2017-Sep-06 04:29N 27°54' W 013°44'815.7
2017-Sep-06 03:59N 27°48' W 013°50'915.6
2017-Sep-06 03:23N 27°41' W 013°57'3316.1
2017-Sep-06 01:21N 27°16' W 014°20'11116.3
2017-Sep-05 18:33N 25°50' W 015°38'716.3
2017-Sep-05 18:08N 25°44' W 015°42'416.3
2017-Sep-05 17:52N 25°41' W 015°46'12616.6
2017-Sep-05 10:15N 24°03' W 017°13'16715.1
2017-Sep-04 23:13N 21°17' W 017°33'1817.3
2017-Sep-04 22:11N 21°02' W 017°23'317.0
2017-Sep-04 21:59N 20°59' W 017°22'915.6
2017-Sep-04 21:23N 20°51' W 017°16'614.4
2017-Sep-04 20:56N 20°46' W 017°13'  
Track history (hours):
 
Tides and Currents Weather Stations Pressure Air Temp Water Temp Dewpoint Dewpoint Depression Visibility Wind Speed Wind Dir Waves Ship Positions

Max Wonder

Last reported at 2017-Sep-14 20:48 UTC. Time now 2017-Sep-20 23:48 UTC.
Position N 19°19' W 017°23'.

Length 162 m; draft 9.7 m.

MMSI: 249060000.

Date/timePositionNaut miles runAvg speedWind from/ knotsBaromVisibWave heightAir tempDewpointWater temp
2017-Sep-14 20:48N 19°19' W 017°23'412.6
2017-Sep-14 20:30N 19°22' W 017°25'3514.1
2017-Sep-14 18:03N 19°48' W 017°49'1913.7
2017-Sep-14 16:39N 20°05' W 017°60'1214.3
2017-Sep-14 15:47N 20°17' W 018°00'414.6
2017-Sep-14 15:30N 20°21' W 018°00'21114.5
2017-Sep-14 00:54N 23°41' W 016°47'12014.9
2017-Sep-13 16:51N 25°32' W 015°58'4215.5
2017-Sep-13 14:06N 26°12' W 015°41'315.4
2017-Sep-13 13:56N 26°15' W 015°40'8414.8
2017-Sep-13 08:14N 27°36' W 015°16'417.0
2017-Sep-13 08:00N 27°40' W 015°16'817.0
2017-Sep-13 07:30N 27°48' W 015°15'917.5
2017-Sep-13 07:00N 27°57' W 015°15'816.8
2017-Sep-13 06:30N 28°04' W 015°20'611.0
2017-Sep-13 06:00N 28°08' W 015°25'1 1.9
2017-Sep-13 05:25N 28°09' W 015°25'0 0.0
2017-Sep-13 04:58N 28°09' W 015°25'0 0.0
2017-Sep-13 04:25N 28°09' W 015°25'0 0.0
2017-Sep-13 03:55N 28°09' W 015°25'0 0.0
2017-Sep-13 03:28N 28°09' W 015°25'0 0.0
2017-Sep-13 02:55N 28°09' W 015°25'0 0.0
2017-Sep-13 02:28N 28°09' W 015°25'0 0.0
2017-Sep-13 01:58N 28°09' W 015°25'0 0.0
2017-Sep-13 01:28N 28°09' W 015°25'0 0.0
2017-Sep-13 00:58N 28°09' W 015°25'0 0.0
2017-Sep-13 00:28N 28°09' W 015°25'0 0.0
2017-Sep-12 23:55N 28°09' W 015°25'0 0.0
2017-Sep-12 23:28N 28°09' W 015°25'0 0.0
2017-Sep-12 22:58N 28°09' W 015°25'0 0.0
2017-Sep-12 22:28N 28°09' W 015°25'0 0.0
2017-Sep-12 21:58N 28°09' W 015°25'0 0.4
2017-Sep-12 21:30N 28°09' W 015°25'2 4.0
2017-Sep-12 21:00N 28°07' W 015°24'3 6.8
2017-Sep-12 20:30N 28°05' W 015°20'5 9.8
2017-Sep-12 20:00N 28°05' W 015°15'713.5
2017-Sep-12 19:30N 28°05' W 015°07'612.5
2017-Sep-12 19:00N 28°08' W 015°01'713.9
2017-Sep-12 18:30N 28°14' W 014°57'714.2
2017-Sep-12 18:00N 28°20' W 014°54'714.2
2017-Sep-12 17:30N 28°27' W 014°50'714.3
2017-Sep-12 17:00N 28°33' W 014°47'815.1
2017-Sep-12 16:30N 28°40' W 014°43'816.5
2017-Sep-12 16:00N 28°47' W 014°39'916.7
2017-Sep-12 15:29N 28°55' W 014°35'916.6
2017-Sep-12 14:57N 29°03' W 014°31'1116.3
2017-Sep-12 14:17N 29°13' W 014°25'616.0
2017-Sep-12 13:54N 29°19' W 014°22'18216.6
2017-Sep-12 02:58N 31°33' W 012°00'2317.0
2017-Sep-12 01:37N 31°49' W 011°41'217.4
2017-Sep-12 01:29N 31°50' W 011°39'917.6
2017-Sep-12 00:59N 31°56' W 011°31'7417.4
2017-Sep-11 20:43N 32°46' W 010°26'1317.1
2017-Sep-11 19:59N 32°55' W 010°15'6617.4
2017-Sep-11 16:12N 33°39' W 009°17'417.5
2017-Sep-11 15:59N 33°41' W 009°13'10917.1
2017-Sep-11 09:36N 34°55' W 007°36'116.6
2017-Sep-11 09:30N 34°56' W 007°35'916.6
2017-Sep-11 08:58N 35°02' W 007°27'816.5
2017-Sep-11 08:30N 35°08' W 007°20'816.5
2017-Sep-11 08:00N 35°13' W 007°13'816.7
2017-Sep-11 07:30N 35°20' W 007°06'916.5
2017-Sep-11 06:59N 35°26' W 006°59'816.7
2017-Sep-11 06:30N 35°31' W 006°51'6816.1
2017-Sep-11 02:17N 35°57' W 005°34'5 0.2
2017-Sep-10 05:18N 35°54' W 005°30'3 3.0
2017-Sep-10 04:26N 35°54' W 005°33'2 1.5
2017-Sep-10 03:26N 35°53' W 005°34'5 0.4
2017-Sep-09 13:09N 35°58' W 005°31'513.9
2017-Sep-09 12:45N 36°01' W 005°25'311.7
2017-Sep-09 12:30N 36°03' W 005°23'4 8.8
2017-Sep-09 12:00N 36°07' W 005°25'0 0.0
2017-Sep-09 04:24N 36°08' W 005°25'0 0.0
2017-Sep-09 04:00N 36°08' W 005°25'0 0.0
2017-Sep-09 03:21N 36°08' W 005°25'0 0.0
2017-Sep-09 02:54N 36°08' W 005°25'0 0.0
2017-Sep-09 02:27N 36°08' W 005°25'0 0.0
2017-Sep-09 01:57N 36°08' W 005°25'0 0.0
2017-Sep-09 01:27N 36°08' W 005°25'0 0.0
2017-Sep-09 01:00N 36°08' W 005°25'0 0.0
2017-Sep-09 00:15N 36°08' W 005°25'0 0.0
2017-Sep-09 00:00N 36°08' W 005°25'0 0.0
2017-Sep-08 22:48N 36°08' W 005°25'0 0.0
2017-Sep-08 22:30N 36°08' W 005°25'0 0.0
2017-Sep-08 21:48N 36°08' W 005°25'0 0.0
2017-Sep-08 21:30N 36°08' W 005°25'0 0.0
2017-Sep-08 20:51N 36°08' W 005°25'0 0.0
2017-Sep-08 20:27N 36°08' W 005°25'0 0.0
2017-Sep-08 19:57N 36°08' W 005°25'0 0.0
2017-Sep-08 19:24N 36°08' W 005°25'0 0.0
2017-Sep-08 19:00N 36°08' W 005°25'0 0.0
2017-Sep-08 18:30N 36°08' W 005°25'0 0.0
2017-Sep-08 18:00N 36°08' W 005°25'0 0.0
2017-Sep-08 17:12N 36°08' W 005°25'0 0.0
2017-Sep-08 16:59N 36°08' W 005°25'1 2.9
2017-Sep-08 16:30N 36°07' W 005°24'2 4.8
2017-Sep-08 16:00N 36°05' W 005°23'2 3.8
2017-Sep-08 15:30N 36°03' W 005°22'0 0.3
2017-Sep-08 15:00N 36°03' W 005°21'0 0.4
2017-Sep-08 14:30N 36°03' W 005°21'0 0.2
2017-Sep-08 13:59N 36°03' W 005°21'2 5.0
2017-Sep-08 13:30N 36°01' W 005°22'3 5.7
2017-Sep-08 13:00N 35°59' W 005°24'3 5.7
2017-Sep-08 12:30N 35°58' W 005°28'2011.4
2017-Sep-08 10:45N 35°54' W 005°52'715.7
2017-Sep-08 10:18N 35°53' W 006°01'1216.2
2017-Sep-08 09:33N 35°50' W 006°15'292 8.8
2017-Sep-07 00:11N 32°12' W 010°08'315.9
2017-Sep-07 00:00N 32°09' W 010°11'25316.3
2017-Sep-06 08:27N 28°44' W 013°03'1215.7
2017-Sep-06 07:39N 28°34' W 013°11'315.5
2017-Sep-06 07:28N 28°32' W 013°13'715.3
2017-Sep-06 07:00N 28°26' W 013°18'815.5
2017-Sep-06 06:30N 28°20' W 013°23'815.7
2017-Sep-06 06:00N 28°13' W 013°28'815.8
2017-Sep-06 05:30N 28°07' W 013°33'815.5
2017-Sep-06 05:00N 28°01' W 013°39'815.5
2017-Sep-06 04:29N 27°54' W 013°44'815.7
2017-Sep-06 03:59N 27°48' W 013°50'915.6
2017-Sep-06 03:23N 27°41' W 013°57'3316.1
2017-Sep-06 01:21N 27°16' W 014°20'11116.3
2017-Sep-05 18:33N 25°50' W 015°38'716.3
2017-Sep-05 18:08N 25°44' W 015°42'416.3
2017-Sep-05 17:52N 25°41' W 015°46'12616.6
2017-Sep-05 10:15N 24°03' W 017°13'16715.1
2017-Sep-04 23:13N 21°17' W 017°33'1817.3
2017-Sep-04 22:11N 21°02' W 017°23'317.0
2017-Sep-04 21:59N 20°59' W 017°22'915.6
2017-Sep-04 21:23N 20°51' W 017°16'614.4
2017-Sep-04 20:56N 20°46' W 017°13'  

Dump ship's entire track history